Time;durP1;ratioP1;P1;durP2;ratioP2;P2;SDS_P1;SDS_P2;PMS_P1;PMS_P2;Temp;Humidity;BMP_temperature;BMP_pressure;BME280_temperature;BME280_humidity;BME280_pressure;Samples;Min_cycle;Max_cycle;Signal;HPM_P1;HPM_P2
2021/08/27 00:00:26;;;;;;;1.97;1.87;;;12.90;99.90;;;;;;488923;243;28652;-70
2021/08/27 00:02:27;;;;;;;2.30;2.20;;;12.90;99.90;;;;;;488905;243;28648;-70
2021/08/27 00:04:29;;;;;;;2.80;2.30;;;13.00;99.90;;;;;;488909;243;28021;-69
2021/08/27 00:06:30;;;;;;;2.20;2.10;;;13.00;99.90;;;;;;488926;243;28249;-69
2021/08/27 00:08:31;;;;;;;2.77;2.20;;;13.00;99.90;;;;;;488898;243;28200;-69
2021/08/27 00:10:32;;;;;;;2.20;2.00;;;13.00;99.90;;;;;;488883;243;28615;-69
2021/08/27 00:12:35;;;;;;;1.90;1.80;;;13.00;99.90;;;;;;488893;243;28059;-69
2021/08/27 00:14:36;;;;;;;2.63;1.80;;;;;;;;;;488859;243;28855;-69
2021/08/27 00:16:37;;;;;;;2.00;1.83;;;12.90;99.90;;;;;;488931;243;27064;-69
2021/08/27 00:18:39;;;;;;;1.90;1.80;;;12.90;99.90;;;;;;488898;243;28047;-69
2021/08/27 00:20:40;;;;;;;2.17;2.00;;;12.90;99.90;;;;;;488922;243;28574;-69
2021/08/27 00:22:41;;;;;;;2.37;2.17;;;12.90;99.90;;;;;;488938;243;28154;-70
2021/08/27 00:24:42;;;;;;;3.47;2.00;;;12.90;99.90;;;;;;488910;243;28301;-69
2021/08/27 00:26:44;;;;;;;2.00;1.90;;;12.80;99.90;;;;;;488922;243;28756;-69
2021/08/27 00:28:45;;;;;;;2.40;2.20;;;12.70;99.90;;;;;;488913;242;28384;-70
2021/08/27 00:30:46;;;;;;;2.13;2.03;;;12.70;99.90;;;;;;488917;243;29833;-69
2021/08/27 00:32:47;;;;;;;2.30;1.90;;;12.80;99.90;;;;;;488943;243;28903;-69
2021/08/27 00:34:49;;;;;;;2.63;1.90;;;12.80;99.90;;;;;;488911;243;28495;-69
2021/08/27 00:36:50;;;;;;;2.30;2.10;;;12.80;99.90;;;;;;488884;243;28546;-69
2021/08/27 00:38:51;;;;;;;1.80;1.70;;;12.80;99.90;;;;;;488862;243;28848;-71
2021/08/27 00:40:52;;;;;;;2.83;2.53;;;12.80;99.90;;;;;;488887;243;28248;-69
2021/08/27 00:42:54;;;;;;;2.23;2.03;;;12.80;99.90;;;;;;488887;243;28234;-69
2021/08/27 00:44:55;;;;;;;2.23;2.10;;;12.80;99.90;;;;;;488891;243;28546;-70
2021/08/27 00:46:56;;;;;;;2.27;2.17;;;12.80;99.90;;;;;;488911;242;28166;-69
2021/08/27 00:48:57;;;;;;;2.10;2.00;;;12.80;99.90;;;;;;488912;243;28299;-69
2021/08/27 00:50:59;;;;;;;2.27;2.13;;;12.80;99.90;;;;;;488891;243;28529;-69
2021/08/27 00:53:00;;;;;;;2.70;2.50;;;12.80;99.90;;;;;;488905;243;29205;-69
2021/08/27 00:55:01;;;;;;;2.20;2.10;;;12.70;99.90;;;;;;488899;243;28779;-70
2021/08/27 00:57:02;;;;;;;1.90;1.80;;;12.70;99.90;;;;;;488911;243;28681;-69
2021/08/27 00:59:05;;;;;;;2.30;2.10;;;;;;;;;;488866;243;28796;-69
2021/08/27 01:01:06;;;;;;;2.10;2.00;;;12.60;99.90;;;;;;488926;242;26613;-69
2021/08/27 01:03:08;;;;;;;2.23;1.97;;;12.60;99.90;;;;;;488893;243;28817;-69
2021/08/27 01:05:09;;;;;;;2.50;2.30;;;12.60;99.90;;;;;;488822;243;28868;-69
2021/08/27 01:07:10;;;;;;;2.93;2.20;;;12.60;99.90;;;;;;488892;243;28962;-69
2021/08/27 01:09:11;;;;;;;2.40;2.20;;;12.60;99.90;;;;;;488918;243;28853;-69
2021/08/27 01:11:13;;;;;;;3.40;2.57;;;12.60;99.90;;;;;;488905;243;29134;-70
2021/08/27 01:13:14;;;;;;;2.57;2.20;;;12.60;99.90;;;;;;488875;243;28294;-70
2021/08/27 01:15:15;;;;;;;2.50;2.27;;;12.50;99.90;;;;;;488901;243;28746;-69
2021/08/27 01:17:16;;;;;;;2.20;2.10;;;12.50;99.90;;;;;;488893;243;28518;-70
2021/08/27 01:19:17;;;;;;;2.60;2.07;;;12.60;99.90;;;;;;488935;243;27972;-69
2021/08/27 01:21:20;;;;;;;3.10;2.30;;;;;;;;;;488925;243;28686;-69
2021/08/27 01:23:21;;;;;;;2.33;2.10;;;12.50;99.90;;;;;;488941;243;26993;-69
2021/08/27 01:25:22;;;;;;;2.27;2.10;;;12.50;99.90;;;;;;488884;243;28302;-69
2021/08/27 01:27:24;;;;;;;2.03;1.93;;;12.50;99.90;;;;;;488905;243;28061;-70
2021/08/27 01:29:25;;;;;;;2.23;2.13;;;12.40;99.90;;;;;;488927;243;28175;-69
2021/08/27 01:31:26;;;;;;;2.73;2.20;;;12.40;99.90;;;;;;488906;243;28321;-69
2021/08/27 01:33:27;;;;;;;2.77;2.40;;;12.30;99.90;;;;;;488890;243;28438;-70
2021/08/27 01:35:29;;;;;;;3.00;2.20;;;12.30;99.90;;;;;;488873;243;28063;-69
2021/08/27 01:37:30;;;;;;;3.80;3.50;;;12.30;99.90;;;;;;488891;243;28836;-69
2021/08/27 01:39:31;;;;;;;3.80;2.40;;;12.20;99.90;;;;;;488900;243;28790;-69
2021/08/27 01:41:32;;;;;;;2.20;2.00;;;12.20;99.90;;;;;;488869;243;29373;-70
2021/08/27 01:43:34;;;;;;;2.30;2.20;;;12.10;99.90;;;;;;488886;243;28710;-69
2021/08/27 01:45:35;;;;;;;2.40;2.20;;;12.10;99.90;;;;;;488880;243;29003;-69
2021/08/27 01:47:36;;;;;;;2.60;2.40;;;12.10;99.90;;;;;;488905;243;28496;-69
2021/08/27 01:49:37;;;;;;;4.77;2.87;;;12.10;99.90;;;;;;488898;243;28494;-69
2021/08/27 01:51:39;;;;;;;3.33;2.90;;;12.20;99.90;;;;;;488909;243;28089;-69
2021/08/27 01:53:41;;;;;;;3.53;3.10;;;12.20;99.90;;;;;;488890;243;28756;-69
2021/08/27 01:55:41;;;;;;;3.50;3.20;;;12.30;99.90;;;;;;488851;243;28009;-70
2021/08/27 01:57:42;;;;;;;6.00;4.33;;;12.30;99.90;;;;;;488931;243;28412;-70
2021/08/27 01:59:44;;;;;;;6.00;4.77;;;12.30;99.90;;;;;;488898;243;28336;-69
2021/08/27 02:01:45;;;;;;;6.10;4.20;;;12.30;99.90;;;;;;488891;243;28328;-69
2021/08/27 02:03:46;;;;;;;4.57;4.13;;;12.30;99.90;;;;;;488876;243;28840;-69
2021/08/27 02:05:47;;;;;;;6.83;5.27;;;12.30;99.90;;;;;;488859;243;28977;-69
2021/08/27 02:07:49;;;;;;;9.60;5.00;;;12.20;99.90;;;;;;488897;243;29102;-70
2021/08/27 02:09:50;;;;;;;7.80;5.50;;;12.20;99.90;;;;;;488927;243;28603;-69
2021/08/27 02:11:51;;;;;;;7.23;5.87;;;12.20;99.90;;;;;;488874;243;28292;-69
2021/08/27 02:13:52;;;;;;;5.50;5.00;;;12.10;99.90;;;;;;488891;243;28359;-69
2021/08/27 02:15:54;;;;;;;5.03;4.30;;;12.10;99.90;;;;;;488885;243;28043;-69
2021/08/27 02:17:55;;;;;;;5.43;4.73;;;12.10;99.90;;;;;;488918;243;28256;-69
2021/08/27 02:19:58;;;;;;;5.40;4.90;;;12.10;99.90;;;;;;488915;243;28182;-69
2021/08/27 02:21:57;;;;;;;5.60;4.20;;;12.10;99.90;;;;;;488838;243;28403;-69
2021/08/27 02:23:59;;;;;;;6.30;4.70;;;12.10;99.90;;;;;;488903;243;28480;-69
2021/08/27 02:26:00;;;;;;;4.30;3.90;;;12.00;99.90;;;;;;488893;243;28489;-69
2021/08/27 02:28:02;;;;;;;4.67;4.27;;;11.90;99.90;;;;;;488947;243;28760;-69
2021/08/27 02:30:02;;;;;;;4.20;3.90;;;11.90;99.90;;;;;;488903;243;28630;-69
2021/08/27 02:32:04;;;;;;;5.03;4.53;;;11.80;99.90;;;;;;488924;243;28717;-70
2021/08/27 02:34:05;;;;;;;4.60;4.10;;;11.80;99.90;;;;;;488877;243;28782;-69
2021/08/27 02:36:06;;;;;;;5.97;4.70;;;11.80;99.90;;;;;;488891;243;28341;-69
2021/08/27 02:38:07;;;;;;;4.67;4.13;;;11.70;99.90;;;;;;488935;243;28392;-69
2021/08/27 02:40:09;;;;;;;5.37;4.43;;;11.70;99.90;;;;;;488914;243;28096;-69
2021/08/27 02:42:10;;;;;;;6.17;3.67;;;11.70;99.90;;;;;;488923;243;28113;-69
2021/08/27 02:44:11;;;;;;;4.50;4.10;;;11.70;99.90;;;;;;488932;243;28051;-70
2021/08/27 02:46:12;;;;;;;7.73;4.20;;;11.70;99.90;;;;;;488928;243;28107;-70
2021/08/27 02:48:14;;;;;;;4.10;3.70;;;11.60;99.90;;;;;;488952;243;28311;-69
2021/08/27 02:50:16;;;;;;;4.30;3.90;;;11.60;99.90;;;;;;488958;243;28154;-69
2021/08/27 02:52:16;;;;;;;4.37;3.97;;;11.60;99.90;;;;;;488904;243;28317;-69
2021/08/27 02:54:17;;;;;;;4.80;4.40;;;11.60;99.90;;;;;;488894;243;28868;-69
2021/08/27 02:56:19;;;;;;;4.20;3.80;;;11.50;99.90;;;;;;488905;243;28746;-69
2021/08/27 02:58:20;;;;;;;4.83;4.07;;;11.50;99.90;;;;;;488921;243;28701;-70
2021/08/27 03:00:21;;;;;;;5.73;4.00;;;11.50;99.90;;;;;;488900;243;28058;-69
2021/08/27 03:02:23;;;;;;;4.17;3.77;;;11.50;99.90;;;;;;488914;243;28123;-69
2021/08/27 03:04:24;;;;;;;4.67;4.27;;;11.40;99.90;;;;;;488855;243;28030;-69
2021/08/27 03:06:25;;;;;;;4.60;4.13;;;11.30;99.90;;;;;;488895;243;28092;-69
2021/08/27 03:08:26;;;;;;;4.23;3.83;;;11.30;99.90;;;;;;488919;243;28181;-69
2021/08/27 03:10:27;;;;;;;4.10;3.70;;;11.20;99.90;;;;;;488914;243;27999;-69
2021/08/27 03:12:29;;;;;;;4.33;3.93;;;11.20;99.90;;;;;;488893;243;28272;-69
2021/08/27 03:14:30;;;;;;;6.23;3.90;;;11.00;99.90;;;;;;488867;243;28096;-69
2021/08/27 03:16:31;;;;;;;4.17;3.77;;;10.90;99.90;;;;;;488889;243;28253;-69
2021/08/27 03:18:32;;;;;;;4.57;3.20;;;10.90;99.90;;;;;;488926;243;28652;-70
2021/08/27 03:20:34;;;;;;;3.70;3.40;;;10.90;99.90;;;;;;488909;243;28633;-69
2021/08/27 03:22:35;;;;;;;3.53;3.33;;;10.80;99.90;;;;;;488922;243;28423;-69
2021/08/27 03:24:36;;;;;;;3.20;3.00;;;10.80;99.90;;;;;;488898;243;27929;-69
2021/08/27 03:26:37;;;;;;;3.93;3.63;;;10.90;99.90;;;;;;488901;243;28048;-69
2021/08/27 03:28:39;;;;;;;4.43;3.80;;;10.80;99.90;;;;;;488920;243;27983;-69
2021/08/27 03:30:40;;;;;;;3.60;3.30;;;10.80;99.90;;;;;;488910;243;27928;-69
2021/08/27 03:32:41;;;;;;;4.03;3.60;;;10.80;99.90;;;;;;488907;243;27865;-69
2021/08/27 03:34:42;;;;;;;4.27;3.87;;;10.70;99.90;;;;;;488909;243;27833;-69
2021/08/27 03:36:44;;;;;;;3.90;3.60;;;10.80;99.90;;;;;;488926;243;28174;-69
2021/08/27 03:38:45;;;;;;;3.93;3.60;;;10.70;99.90;;;;;;488932;243;27973;-69
2021/08/27 03:40:46;;;;;;;4.43;4.03;;;10.70;99.90;;;;;;488922;243;27882;-69
2021/08/27 03:42:47;;;;;;;4.13;3.83;;;10.70;99.90;;;;;;488912;243;28498;-69
2021/08/27 03:44:49;;;;;;;3.97;3.67;;;10.70;99.90;;;;;;488912;243;28642;-69
2021/08/27 03:46:50;;;;;;;4.00;3.70;;;10.70;99.90;;;;;;488870;243;28598;-69
2021/08/27 03:48:51;;;;;;;5.53;4.27;;;10.60;99.90;;;;;;488920;243;28420;-70
2021/08/27 03:50:54;;;;;;;4.30;4.00;;;10.50;99.90;;;;;;488920;243;27687;-69
2021/08/27 03:52:54;;;;;;;5.40;4.03;;;10.50;99.90;;;;;;488867;243;27759;-69
2021/08/27 03:54:56;;;;;;;5.20;4.70;;;10.50;99.90;;;;;;488904;243;27805;-69
2021/08/27 03:56:56;;;;;;;8.90;4.50;;;10.40;99.90;;;;;;488861;243;28023;-69
2021/08/27 03:58:57;;;;;;;5.37;4.87;;;10.20;99.90;;;;;;488941;243;27878;-69
2021/08/27 04:00:59;;;;;;;4.03;3.70;;;10.20;99.90;;;;;;488935;243;27815;-69
2021/08/27 04:03:00;;;;;;;4.40;4.10;;;10.30;99.90;;;;;;488941;243;27843;-70
2021/08/27 04:05:01;;;;;;;4.37;4.00;;;10.30;99.90;;;;;;488925;243;27812;-69
2021/08/27 04:07:02;;;;;;;4.57;4.17;;;10.30;99.90;;;;;;488920;243;27971;-69
2021/08/27 04:09:04;;;;;;;4.30;4.00;;;10.30;99.90;;;;;;488943;243;28360;-69
2021/08/27 04:11:05;;;;;;;4.40;4.00;;;10.30;99.90;;;;;;488928;243;28417;-69
2021/08/27 04:13:06;;;;;;;4.30;3.90;;;10.40;99.90;;;;;;488910;243;28401;-69
2021/08/27 04:15:07;;;;;;;4.70;4.30;;;10.40;99.90;;;;;;488926;243;27866;-69
2021/08/27 04:17:09;;;;;;;4.87;4.37;;;10.40;99.90;;;;;;488913;243;27785;-70
2021/08/27 04:19:10;;;;;;;3.80;3.60;;;10.40;99.90;;;;;;488937;243;27817;-69
2021/08/27 04:21:11;;;;;;;6.30;4.90;;;10.40;99.90;;;;;;488927;243;27970;-69
2021/08/27 04:23:12;;;;;;;4.30;4.00;;;10.40;99.90;;;;;;488918;243;27979;-69
2021/08/27 04:25:14;;;;;;;4.57;4.27;;;10.40;99.90;;;;;;488903;243;27813;-69
2021/08/27 04:27:15;;;;;;;4.87;4.47;;;10.40;99.90;;;;;;488869;243;28049;-69
2021/08/27 04:29:16;;;;;;;5.57;5.07;;;10.30;99.90;;;;;;488917;243;27762;-69
2021/08/27 04:31:17;;;;;;;5.07;4.57;;;10.40;99.90;;;;;;488916;243;27911;-69
2021/08/27 04:33:19;;;;;;;5.53;5.03;;;10.40;99.90;;;;;;488914;243;28151;-69
2021/08/27 04:35:20;;;;;;;4.97;4.57;;;10.20;99.90;;;;;;488923;242;28273;-69
2021/08/27 04:37:21;;;;;;;4.70;4.30;;;10.20;99.90;;;;;;488880;243;28203;-69
2021/08/27 04:39:23;;;;;;;5.00;4.60;;;10.30;99.90;;;;;;488916;243;28022;-70
2021/08/27 04:41:24;;;;;;;4.37;4.07;;;10.40;99.90;;;;;;488899;243;27954;-69
2021/08/27 04:43:25;;;;;;;4.57;3.93;;;10.40;99.90;;;;;;488899;243;27720;-69
2021/08/27 04:45:26;;;;;;;4.40;4.10;;;10.30;99.90;;;;;;488900;243;27683;-69
2021/08/27 04:47:27;;;;;;;4.80;4.40;;;10.30;99.90;;;;;;488877;243;27843;-69
2021/08/27 04:49:29;;;;;;;5.00;4.60;;;10.40;99.90;;;;;;488933;243;27879;-69
2021/08/27 04:51:30;;;;;;;4.80;4.40;;;10.50;99.90;;;;;;488901;243;27834;-69
2021/08/27 04:53:31;;;;;;;4.67;4.20;;;10.50;99.90;;;;;;488874;243;27862;-69
2021/08/27 04:55:32;;;;;;;5.00;4.30;;;10.70;99.90;;;;;;488896;243;28013;-69
2021/08/27 04:57:34;;;;;;;4.50;4.10;;;10.60;99.90;;;;;;488878;243;28516;-69
2021/08/27 04:59:35;;;;;;;4.93;4.33;;;10.70;99.90;;;;;;488919;243;28443;-69
2021/08/27 05:01:36;;;;;;;4.77;4.37;;;10.70;99.90;;;;;;488902;243;28390;-69
2021/08/27 05:03:38;;;;;;;4.50;4.10;;;10.70;99.90;;;;;;488903;243;27992;-69
2021/08/27 05:05:39;;;;;;;4.77;4.37;;;10.70;99.90;;;;;;488915;243;28000;-69
2021/08/27 05:07:40;;;;;;;4.40;4.10;;;10.60;99.90;;;;;;488908;243;27751;-69
2021/08/27 05:09:43;;;;;;;5.30;4.60;;;10.60;99.90;;;;;;488929;243;27945;-69
2021/08/27 05:11:44;;;;;;;4.83;4.43;;;10.60;99.90;;;;;;488891;243;28041;-69
2021/08/27 05:13:45;;;;;;;5.23;4.83;;;10.50;99.90;;;;;;488879;243;28042;-69
2021/08/27 05:15:46;;;;;;;5.00;4.60;;;10.50;99.90;;;;;;488894;243;28498;-69
2021/08/27 05:17:47;;;;;;;4.60;4.20;;;10.40;99.90;;;;;;488906;243;28471;-69
2021/08/27 05:19:49;;;;;;;4.60;4.20;;;10.40;99.90;;;;;;488919;243;28262;-69
2021/08/27 05:21:50;;;;;;;4.37;3.97;;;10.40;99.90;;;;;;488919;243;28383;-69
2021/08/27 05:23:52;;;;;;;4.27;3.93;;;10.30;99.90;;;;;;488890;243;27992;-69
2021/08/27 05:25:53;;;;;;;4.87;4.10;;;10.20;99.90;;;;;;488828;243;27951;-69
2021/08/27 05:27:54;;;;;;;4.50;4.10;;;10.20;99.90;;;;;;488890;243;28040;-69
2021/08/27 05:29:55;;;;;;;4.90;4.40;;;10.20;99.90;;;;;;488919;243;27787;-69
2021/08/27 05:31:56;;;;;;;4.80;4.40;;;10.20;99.90;;;;;;488913;243;27956;-70
2021/08/27 05:33:59;;;;;;;4.67;4.23;;;10.30;99.90;;;;;;488918;243;27980;-69
2021/08/27 05:35:59;;;;;;;4.57;4.17;;;10.30;99.90;;;;;;488856;243;27859;-69
2021/08/27 05:38:00;;;;;;;4.40;4.10;;;10.30;99.90;;;;;;488911;243;27922;-69
2021/08/27 05:40:01;;;;;;;4.30;3.73;;;10.40;99.90;;;;;;488906;243;28388;-69
2021/08/27 05:42:02;;;;;;;4.10;3.80;;;10.50;99.90;;;;;;488921;243;28436;-69
2021/08/27 05:44:04;;;;;;;4.20;3.90;;;10.50;99.90;;;;;;488907;243;28527;-69
2021/08/27 05:46:05;;;;;;;4.63;4.20;;;10.50;99.90;;;;;;488897;243;28452;-69
2021/08/27 05:48:06;;;;;;;4.40;4.00;;;10.50;99.90;;;;;;488894;243;27818;-69
2021/08/27 05:50:07;;;;;;;4.93;4.53;;;10.50;99.90;;;;;;488929;243;27869;-69
2021/08/27 05:52:09;;;;;;;4.47;4.07;;;10.50;99.90;;;;;;488957;243;27983;-69
2021/08/27 05:54:10;;;;;;;4.20;3.80;;;10.40;99.90;;;;;;488915;243;27789;-69
2021/08/27 05:56:12;;;;;;;4.63;4.17;;;10.30;99.90;;;;;;488929;243;27958;-69
2021/08/27 05:58:12;;;;;;;4.50;4.10;;;10.30;99.90;;;;;;488934;243;27906;-69
2021/08/27 06:00:14;;;;;;;4.23;3.93;;;10.30;99.90;;;;;;488910;243;28046;-69
2021/08/27 06:02:15;;;;;;;4.20;3.80;;;10.30;99.90;;;;;;488935;243;27938;-69
2021/08/27 06:04:16;;;;;;;4.77;4.37;;;10.40;99.90;;;;;;488932;243;27798;-69
2021/08/27 06:06:17;;;;;;;5.07;4.20;;;10.50;99.90;;;;;;488908;243;28568;-69
2021/08/27 06:08:19;;;;;;;4.30;3.90;;;10.60;99.90;;;;;;488930;243;28462;-69
2021/08/27 06:10:20;;;;;;;4.40;4.00;;;10.70;99.90;;;;;;488936;243;28346;-69
2021/08/27 06:12:21;;;;;;;3.93;3.63;;;10.80;99.90;;;;;;491607;240;27734;-69
2021/08/27 06:14:22;;;;;;;3.83;3.53;;;10.80;99.90;;;;;;489954;243;27915;-69
2021/08/27 06:16:24;;;;;;;4.03;3.73;;;10.90;99.90;;;;;;489944;243;27944;-69
2021/08/27 06:18:25;;;;;;;4.47;4.17;;;11.00;99.90;;;;;;490000;243;27852;-70
2021/08/27 06:20:26;;;;;;;4.73;4.10;;;11.00;99.90;;;;;;489975;243;28020;-69
2021/08/27 06:22:27;;;;;;;4.57;3.60;;;11.10;99.90;;;;;;489996;243;28077;-69
2021/08/27 06:24:29;;;;;;;4.17;3.87;;;11.10;99.90;;;;;;489964;243;27959;-69
2021/08/27 06:26:30;;;;;;;4.63;4.07;;;11.20;99.90;;;;;;489929;243;28080;-70
2021/08/27 06:28:31;;;;;;;4.10;3.80;;;11.20;99.90;;;;;;489614;243;28241;-69
2021/08/27 06:30:32;;;;;;;4.33;3.93;;;11.30;99.90;;;;;;489385;243;28219;-69
2021/08/27 06:32:34;;;;;;;4.20;3.90;;;11.40;99.90;;;;;;489618;243;28026;-69
2021/08/27 06:34:35;;;;;;;4.10;3.80;;;11.40;99.90;;;;;;489447;243;28116;-69
2021/08/27 06:36:36;;;;;;;6.17;4.00;;;11.40;99.90;;;;;;489888;243;28106;-69
2021/08/27 06:38:37;;;;;;;4.20;3.80;;;11.50;99.90;;;;;;489611;243;28159;-70
2021/08/27 06:40:39;;;;;;;4.93;4.43;;;11.60;99.90;;;;;;489956;243;28098;-69
2021/08/27 06:42:40;;;;;;;4.00;3.70;;;11.60;99.90;;;;;;489973;243;28239;-69
2021/08/27 06:44:41;;;;;;;4.60;4.20;;;11.60;99.90;;;;;;489954;243;28324;-69
2021/08/27 06:46:45;;;;;;;5.10;4.50;;;11.60;99.90;;;;;;489966;243;28826;-69
2021/08/27 06:48:46;;;;;;;4.93;4.50;;;11.70;99.90;;;;;;490013;243;28366;-69
2021/08/27 06:50:48;;;;;;;4.90;4.40;;;11.80;99.90;;;;;;490023;243;28358;-70
2021/08/27 06:52:49;;;;;;;4.13;3.83;;;11.80;99.90;;;;;;489876;243;28275;-69
2021/08/27 06:54:50;;;;;;;5.33;4.90;;;11.80;99.90;;;;;;489989;243;28253;-70
2021/08/27 06:56:51;;;;;;;5.87;4.63;;;11.90;99.90;;;;;;489989;243;28365;-70
2021/08/27 06:58:53;;;;;;;5.47;4.97;;;12.00;99.90;;;;;;489989;243;28893;-69
2021/08/27 07:00:54;;;;;;;4.77;4.47;;;12.20;99.90;;;;;;490000;243;28895;-69
2021/08/27 07:02:55;;;;;;;5.23;4.73;;;12.40;99.90;;;;;;490011;242;29053;-69
2021/08/27 07:04:58;;;;;;;5.40;5.00;;;;;;;;;;490011;243;28803;-70
2021/08/27 07:06:59;;;;;;;5.37;4.83;;;12.50;99.90;;;;;;489995;241;26643;-69
2021/08/27 07:09:00;;;;;;;5.33;4.83;;;12.50;99.90;;;;;;490007;243;28514;-70
2021/08/27 07:11:01;;;;;;;5.27;4.77;;;12.40;99.90;;;;;;490002;243;28861;-70
2021/08/27 07:13:03;;;;;;;5.90;4.93;;;12.40;99.90;;;;;;489971;243;29284;-70
2021/08/27 07:15:04;;;;;;;5.83;5.20;;;12.60;99.90;;;;;;489996;243;28462;-69
2021/08/27 07:17:06;;;;;;;6.30;4.80;;;;;;;;;;490007;243;28016;-70
2021/08/27 07:19:07;;;;;;;6.10;4.47;;;12.90;99.90;;;;;;490020;241;26593;-69
2021/08/27 07:21:09;;;;;;;5.40;4.67;;;13.00;99.90;;;;;;489976;243;28272;-70
2021/08/27 07:23:13;;;;;;;5.20;4.80;;;;;;;;;;489992;243;29716;-69
2021/08/27 07:25:12;;;;;;;5.43;4.90;;;13.00;99.90;;;;;;489923;242;26588;-70
2021/08/27 07:27:14;;;;;;;4.80;4.40;;;13.00;99.90;;;;;;490007;243;28274;-71
2021/08/27 07:29:15;;;;;;;5.57;4.60;;;13.00;99.90;;;;;;490042;243;28804;-71
2021/08/27 07:31:17;;;;;;;4.67;4.23;;;13.00;99.90;;;;;;489994;243;28813;-71
2021/08/27 07:33:18;;;;;;;6.33;5.17;;;13.20;99.90;;;;;;490024;243;28956;-71
2021/08/27 07:35:20;;;;;;;4.87;4.47;;;13.20;99.90;;;;;;490033;243;28374;-72
2021/08/27 07:37:21;;;;;;;8.93;5.40;;;13.20;99.90;;;;;;489994;243;28274;-72
2021/08/27 07:39:22;;;;;;;5.10;4.70;;;13.10;99.90;;;;;;486365;243;28192;-69
2021/08/27 07:41:23;;;;;;;5.10;4.67;;;13.10;99.90;;;;;;483209;246;28340;-69
2021/08/27 07:43:25;;;;;;;5.40;4.60;;;13.00;99.90;;;;;;483218;246;28488;-70
2021/08/27 07:45:26;;;;;;;5.83;5.33;;;12.90;99.90;;;;;;483259;246;28212;-70
2021/08/27 07:47:27;;;;;;;6.43;5.00;;;13.00;99.90;;;;;;483244;246;28334;-70
2021/08/27 07:49:28;;;;;;;8.57;5.50;;;13.00;99.90;;;;;;483104;246;28455;-70
2021/08/27 07:51:30;;;;;;;5.80;4.87;;;13.10;99.90;;;;;;483263;246;28752;-70
2021/08/27 07:53:31;;;;;;;5.30;4.80;;;13.20;99.90;;;;;;483256;246;28916;-70
2021/08/27 07:55:32;;;;;;;6.03;5.10;;;13.10;99.90;;;;;;483173;246;28779;-70
2021/08/27 07:57:33;;;;;;;5.30;4.80;;;13.10;99.90;;;;;;483198;246;28267;-70
2021/08/27 07:59:35;;;;;;;5.00;4.50;;;13.20;99.90;;;;;;483233;246;28187;-70
2021/08/27 08:01:36;;;;;;;5.70;5.07;;;13.30;99.90;;;;;;483251;246;28222;-72
2021/08/27 08:03:37;;;;;;;5.70;5.20;;;13.50;99.90;;;;;;483236;246;28589;-71
2021/08/27 08:05:40;;;;;;;6.43;5.30;;;;;;;;;;483199;246;28430;-72
2021/08/27 08:07:41;;;;;;;6.40;4.60;;;13.70;99.90;;;;;;483220;245;26923;-71
2021/08/27 08:09:42;;;;;;;4.70;4.30;;;13.90;99.90;;;;;;483223;246;28932;-71
2021/08/27 08:11:43;;;;;;;5.53;4.50;;;14.00;99.90;;;;;;483200;246;28589;-71
2021/08/27 08:13:45;;;;;;;7.73;4.50;;;13.90;99.90;;;;;;483232;246;28835;-71
2021/08/27 08:15:46;;;;;;;7.13;4.77;;;13.90;99.90;;;;;;482887;246;28598;-70
2021/08/27 08:17:47;;;;;;;4.97;4.40;;;13.90;99.90;;;;;;483104;246;28856;-71
2021/08/27 08:19:48;;;;;;;6.20;5.33;;;13.90;99.90;;;;;;482802;246;28910;-71
2021/08/27 08:21:50;;;;;;;4.67;4.23;;;13.90;99.90;;;;;;483199;246;29045;-71
2021/08/27 08:23:51;;;;;;;6.37;5.13;;;14.20;99.90;;;;;;483222;246;28943;-71
2021/08/27 08:25:52;;;;;;;4.27;3.97;;;14.40;99.90;;;;;;483199;246;29349;-71
2021/08/27 08:27:53;;;;;;;5.50;4.77;;;14.60;99.90;;;;;;483235;246;30133;-71
2021/08/27 08:29:55;;;;;;;4.40;4.00;;;14.70;99.90;;;;;;483255;246;29371;-71
2021/08/27 08:31:56;;;;;;;4.60;4.20;;;14.80;99.90;;;;;;483262;246;28963;-71
2021/08/27 08:33:57;;;;;;;4.50;4.10;;;14.90;99.90;;;;;;483221;246;28940;-71
2021/08/27 08:35:58;;;;;;;5.30;4.07;;;14.60;99.90;;;;;;483231;246;28892;-71
2021/08/27 08:38:00;;;;;;;4.07;3.67;;;14.70;99.90;;;;;;483233;246;28927;-71
2021/08/27 08:40:02;;;;;;;3.97;3.67;;;14.50;99.90;;;;;;483249;244;28845;-71
2021/08/27 08:42:02;;;;;;;4.30;3.90;;;14.40;99.90;;;;;;483191;246;28909;-71
2021/08/27 08:44:04;;;;;;;4.20;3.80;;;14.30;99.90;;;;;;483178;246;28915;-71
2021/08/27 08:46:05;;;;;;;4.57;3.80;;;14.20;99.90;;;;;;483219;246;28850;-71
2021/08/27 08:48:06;;;;;;;5.73;4.00;;;14.30;99.90;;;;;;483234;246;29357;-68
2021/08/27 08:50:07;;;;;;;4.53;4.13;;;14.20;99.90;;;;;;483263;246;28950;-72
2021/08/27 08:52:09;;;;;;;4.77;3.90;;;14.20;99.90;;;;;;483229;246;29362;-70
2021/08/27 08:54:13;;;;;;;5.80;3.70;;;14.30;99.90;;;;;;483228;246;29302;-70
2021/08/27 08:56:11;;;;;;;4.10;3.80;;;14.50;99.90;;;;;;482994;246;29356;-72
2021/08/27 08:58:12;;;;;;;4.57;3.70;;;14.60;99.90;;;;;;483230;246;28885;-69
2021/08/27 09:00:14;;;;;;;4.90;3.60;;;14.80;99.90;;;;;;483268;246;28841;-70
2021/08/27 09:02:15;;;;;;;4.03;3.73;;;14.80;99.90;;;;;;483231;246;28886;-70
2021/08/27 09:04:16;;;;;;;3.73;3.43;;;14.80;99.90;;;;;;483260;246;28833;-70
2021/08/27 09:06:17;;;;;;;4.20;3.20;;;15.00;99.90;;;;;;483260;246;28888;-70
2021/08/27 09:08:19;;;;;;;3.70;3.40;;;15.20;99.90;;;;;;483296;246;28915;-71
2021/08/27 09:10:20;;;;;;;4.27;3.50;;;15.10;99.90;;;;;;483294;246;28848;-72
2021/08/27 09:12:21;;;;;;;4.83;3.50;;;15.10;99.90;;;;;;483225;246;28952;-72
2021/08/27 09:14:22;;;;;;;5.00;4.50;;;15.00;99.90;;;;;;483216;246;28829;-72
2021/08/27 09:16:24;;;;;;;10.30;4.77;;;14.70;99.90;;;;;;483220;246;29429;-71
2021/08/27 09:18:25;;;;;;;4.77;3.93;;;14.80;99.90;;;;;;483261;246;29440;-71
2021/08/27 09:20:28;;;;;;;5.50;4.00;;;14.90;99.90;;;;;;483247;246;29387;-71
2021/08/27 09:22:27;;;;;;;4.53;3.77;;;15.10;99.90;;;;;;483129;246;28894;-70
2021/08/27 09:24:30;;;;;;;4.67;3.80;;;15.30;99.90;;;;;;483186;246;28968;-70
2021/08/27 09:26:30;;;;;;;4.67;4.27;;;15.30;99.90;;;;;;483176;246;28846;-70
2021/08/27 09:28:31;;;;;;;4.40;4.00;;;15.40;99.90;;;;;;483274;246;28912;-71
2021/08/27 09:30:32;;;;;;;4.17;3.77;;;15.30;99.90;;;;;;483269;246;28847;-72
2021/08/27 09:32:34;;;;;;;4.60;4.03;;;15.20;99.90;;;;;;483259;246;28909;-69
2021/08/27 09:34:35;;;;;;;4.73;4.07;;;15.10;99.90;;;;;;483262;246;28834;-70
2021/08/27 09:36:36;;;;;;;4.33;3.90;;;15.20;99.90;;;;;;483279;246;28937;-72
2021/08/27 09:38:37;;;;;;;4.30;3.73;;;15.20;99.90;;;;;;483185;246;28923;-72
2021/08/27 09:40:39;;;;;;;4.27;3.67;;;15.10;99.90;;;;;;483248;246;29312;-72
2021/08/27 09:42:40;;;;;;;5.73;4.13;;;15.30;99.90;;;;;;483241;246;29368;-72
2021/08/27 09:44:41;;;;;;;5.00;3.90;;;15.30;99.90;;;;;;483251;246;30090;-71
2021/08/27 09:46:44;;;;;;;5.30;4.30;;;15.30;99.90;;;;;;483286;246;28855;-71
2021/08/27 09:48:44;;;;;;;4.03;3.70;;;15.30;99.90;;;;;;483138;246;28881;-72
2021/08/27 09:50:45;;;;;;;4.87;4.43;;;15.40;99.90;;;;;;483251;246;28840;-71
2021/08/27 09:52:46;;;;;;;5.17;4.67;;;15.30;99.90;;;;;;483238;246;28984;-71
2021/08/27 09:54:48;;;;;;;4.60;4.27;;;15.00;99.90;;;;;;483271;246;28877;-69
2021/08/27 09:56:49;;;;;;;5.83;5.07;;;14.90;99.90;;;;;;483258;246;28883;-69
2021/08/27 09:58:50;;;;;;;6.07;4.73;;;14.80;99.90;;;;;;483266;246;28889;-71
2021/08/27 10:00:52;;;;;;;4.90;4.50;;;14.90;99.90;;;;;;483237;246;28855;-71
2021/08/27 10:02:52;;;;;;;4.70;4.30;;;15.00;99.90;;;;;;483235;246;28890;-71
2021/08/27 10:04:57;;;;;;;5.90;4.53;;;15.40;99.90;;;;;;483260;246;29808;-72
2021/08/27 10:06:55;;;;;;;4.43;4.03;;;15.70;99.90;;;;;;482848;246;29339;-69
2021/08/27 10:08:56;;;;;;;4.30;3.90;;;15.80;99.90;;;;;;483248;246;29364;-69
2021/08/27 10:10:57;;;;;;;4.00;3.70;;;15.80;99.90;;;;;;483245;246;28851;-70
2021/08/27 10:12:59;;;;;;;5.10;4.33;;;15.70;99.90;;;;;;483231;246;28928;-71
2021/08/27 10:15:00;;;;;;;4.40;4.10;;;15.60;99.90;;;;;;483278;246;28899;-71
2021/08/27 10:17:03;;;;;;;5.60;4.47;;;15.40;99.90;;;;;;483267;246;28860;-69
2021/08/27 10:19:02;;;;;;;5.27;4.40;;;15.40;99.90;;;;;;483178;246;28980;-71
2021/08/27 10:21:05;;;;;;;5.60;4.40;;;15.20;99.90;;;;;;483263;246;28869;-71
2021/08/27 10:23:05;;;;;;;4.93;4.40;;;15.20;99.90;;;;;;483176;246;28911;-72
2021/08/27 10:25:06;;;;;;;4.60;4.20;;;15.30;99.90;;;;;;483280;246;28983;-71
2021/08/27 10:27:07;;;;;;;6.50;4.63;;;15.30;99.90;;;;;;483269;246;28935;-71
2021/08/27 10:29:09;;;;;;;6.10;4.50;;;15.40;99.90;;;;;;483245;246;29346;-71
2021/08/27 10:31:10;;;;;;;5.30;4.23;;;15.60;99.90;;;;;;483219;246;29331;-71